createdAt,value
2023-04-22T00:00:15.992Z,11.90
2023-04-22T00:01:40.260Z,11.89
2023-04-22T00:03:05.951Z,11.77
2023-04-22T00:04:28.758Z,11.82
2023-04-22T00:05:52.313Z,11.82
2023-04-22T00:07:14.801Z,11.79
2023-04-22T00:08:39.801Z,11.80
2023-04-22T00:10:04.199Z,11.82
2023-04-22T00:11:26.942Z,11.72
2023-04-22T00:12:48.472Z,11.78
2023-04-22T00:14:11.628Z,11.78
2023-04-22T00:15:34.457Z,11.77
2023-04-22T00:16:57.696Z,11.72
2023-04-22T00:18:22.095Z,11.68
2023-04-22T00:19:44.506Z,11.66
2023-04-22T00:21:07.963Z,11.72
2023-04-22T00:22:37.982Z,11.67
2023-04-22T00:23:59.776Z,11.69
2023-04-22T00:25:21.948Z,11.68
2023-04-22T00:26:43.088Z,11.63
2023-04-22T00:28:08.630Z,11.59
2023-04-22T00:29:30.075Z,11.62
2023-04-22T00:30:53.035Z,11.58
2023-04-22T00:32:15.213Z,11.57
2023-04-22T00:33:38.978Z,11.55
2023-04-22T00:35:01.908Z,11.56
2023-04-22T00:36:24.082Z,11.52
2023-04-22T00:37:47.460Z,11.51
2023-04-22T00:39:09.394Z,11.49
2023-04-22T00:40:31.474Z,11.49
2023-04-22T00:41:52.531Z,11.48
2023-04-22T00:43:15.261Z,11.43
2023-04-22T00:44:37.007Z,11.34
2023-04-22T00:45:59.257Z,11.39
2023-04-22T00:47:26.955Z,11.37
2023-04-22T00:48:51.416Z,11.37
2023-04-22T00:50:17.006Z,11.34
2023-04-22T00:51:38.922Z,11.32
2023-04-22T00:53:01.239Z,11.32
2023-04-22T00:54:23.386Z,11.28
2023-04-22T00:55:44.583Z,11.27
2023-04-22T00:57:10.057Z,11.26
2023-04-22T00:58:32.554Z,11.16
2023-04-22T00:59:55.148Z,11.15
2023-04-22T01:01:19.536Z,11.14
2023-04-22T01:02:42.334Z,11.13
2023-04-22T01:04:05.448Z,11.21
2023-04-22T01:05:33.473Z,11.19
2023-04-22T01:06:54.891Z,11.20
2023-04-22T01:08:17.605Z,11.07
2023-04-22T01:09:40.361Z,11.07
2023-04-22T01:11:04.329Z,11.05
2023-04-22T01:12:25.439Z,11.11
2023-04-22T01:13:48.260Z,11.07
2023-04-22T01:15:12.019Z,11.07
2023-04-22T01:16:36.090Z,11.07
2023-04-22T01:17:59.354Z,11.07
2023-04-22T01:19:24.337Z,11.04
2023-04-22T01:20:45.982Z,11.10
2023-04-22T01:22:09.780Z,11.04
2023-04-22T01:23:33.522Z,11.08
2023-04-22T01:24:55.152Z,11.08
2023-04-22T01:26:17.324Z,11.08
2023-04-22T01:27:39.492Z,11.08
2023-04-22T01:29:02.714Z,11.04
2023-04-22T01:30:24.842Z,11.04
2023-04-22T01:31:46.819Z,11.02
2023-04-22T01:33:09.143Z,11.02
2023-04-22T01:34:31.466Z,11.01
2023-04-22T01:35:53.828Z,11.01
2023-04-22T01:37:15.092Z,10.99
2023-04-22T01:38:38.994Z,10.99
2023-04-22T01:40:00.621Z,10.97
2023-04-22T01:41:22.725Z,10.97
2023-04-22T01:42:44.154Z,10.92
2023-04-22T01:44:06.442Z,10.94
2023-04-22T01:45:28.886Z,10.94
2023-04-22T01:46:51.362Z,10.93
2023-04-22T01:48:13.551Z,10.93
2023-04-22T01:49:38.033Z,10.91
2023-04-22T01:51:00.604Z,10.90
2023-04-22T01:52:23.940Z,10.88
2023-04-22T01:53:47.538Z,10.89
2023-04-22T01:55:10.100Z,10.89
2023-04-22T01:56:31.863Z,10.85
2023-04-22T01:57:52.812Z,10.85
2023-04-22T01:59:24.456Z,10.83
2023-04-22T02:00:49.049Z,10.82
2023-04-22T02:02:11.546Z,10.79
2023-04-22T02:03:32.887Z,10.77
2023-04-22T02:04:55.646Z,10.77
2023-04-22T02:06:16.774Z,10.77
2023-04-22T02:07:38.970Z,10.77
2023-04-22T02:09:01.483Z,10.75
2023-04-22T02:10:24.209Z,10.75
2023-04-22T02:11:45.713Z,10.74
2023-04-22T02:13:07.829Z,10.73
2023-04-22T02:14:31.051Z,10.71
2023-04-22T02:15:58.003Z,10.71
2023-04-22T02:17:20.289Z,10.70
2023-04-22T02:18:41.448Z,10.68
2023-04-22T02:20:05.026Z,10.63
2023-04-22T02:21:27.798Z,10.67
2023-04-22T02:22:49.038Z,10.65
2023-04-22T02:24:14.133Z,10.64
2023-04-22T02:25:35.649Z,10.64
2023-04-22T02:26:58.598Z,10.63
2023-04-22T02:28:19.952Z,10.54
2023-04-22T02:29:42.291Z,10.56
2023-04-22T02:31:04.018Z,10.57
2023-04-22T02:32:26.396Z,10.59
2023-04-22T02:33:47.665Z,10.59
2023-04-22T02:35:14.636Z,10.53
2023-04-22T02:36:37.563Z,10.49
2023-04-22T02:38:03.233Z,10.56
2023-04-22T02:39:33.416Z,10.46
2023-04-22T02:40:58.708Z,10.53
2023-04-22T02:42:23.599Z,10.47
2023-04-22T02:43:46.590Z,10.53
2023-04-22T02:45:11.820Z,10.44
2023-04-22T02:46:36.361Z,10.50
2023-04-22T02:47:57.944Z,10.43
2023-04-22T02:49:21.009Z,10.41
2023-04-22T02:50:42.747Z,10.48
2023-04-22T02:52:05.550Z,10.44
2023-04-22T02:53:26.951Z,10.43
2023-04-22T02:54:51.011Z,10.42
2023-04-22T02:56:12.129Z,10.48
2023-04-22T02:57:35.818Z,10.45
2023-04-22T02:58:57.480Z,10.46
2023-04-22T03:00:20.347Z,10.38
2023-04-22T03:01:41.453Z,10.35
2023-04-22T03:03:08.461Z,10.43
2023-04-22T03:04:33.840Z,10.41
2023-04-22T03:05:55.021Z,10.32
2023-04-22T03:07:17.460Z,10.37
2023-04-22T03:08:40.418Z,10.38
2023-04-22T03:10:04.233Z,10.37
2023-04-22T03:11:29.248Z,10.33
2023-04-22T03:12:50.293Z,10.31
2023-04-22T03:14:12.650Z,10.29
2023-04-22T03:15:33.691Z,10.35
2023-04-22T03:16:56.433Z,10.32
2023-04-22T03:18:19.040Z,10.34
2023-04-22T03:19:40.336Z,10.33
2023-04-22T03:21:05.656Z,10.31
2023-04-22T03:22:27.139Z,10.31
2023-04-22T03:23:52.862Z,10.29
2023-04-22T03:25:16.325Z,10.28
2023-04-22T03:26:44.584Z,10.28
2023-04-22T03:28:05.864Z,10.27
2023-04-22T03:29:28.201Z,10.25
2023-04-22T03:30:49.819Z,10.25
2023-04-22T03:32:12.365Z,10.21
2023-04-22T03:33:33.949Z,10.17
2023-04-22T03:35:02.189Z,10.20
2023-04-22T03:36:24.798Z,10.10
2023-04-22T03:37:46.100Z,10.11
2023-04-22T03:39:12.389Z,10.14
2023-04-22T03:40:36.961Z,10.16
2023-04-22T03:42:07.252Z,10.09
2023-04-22T03:43:32.736Z,10.15
2023-04-22T03:44:59.348Z,10.11
2023-04-22T03:46:25.303Z,10.13
2023-04-22T03:47:57.117Z,10.13
2023-04-22T03:49:28.955Z,10.16
2023-04-22T03:51:00.345Z,10.16
2023-04-22T03:53:07.792Z,10.05
2023-04-22T03:54:29.821Z,10.14
2023-04-22T03:55:56.474Z,10.14
2023-04-22T03:57:19.454Z,10.13
2023-04-22T03:58:42.026Z,10.09
2023-04-22T04:00:09.110Z,10.13
2023-04-22T04:01:37.972Z,10.11
2023-04-22T04:03:02.026Z,10.10
2023-04-22T04:04:25.440Z,10.13
2023-04-22T04:05:53.223Z,10.11
2023-04-22T04:07:19.151Z,10.13
2023-04-22T04:08:41.336Z,10.11
2023-04-22T04:10:04.261Z,10.15
2023-04-22T04:11:26.876Z,10.16
2023-04-22T04:12:51.013Z,10.16
2023-04-22T04:14:16.252Z,10.11
2023-04-22T04:15:42.154Z,10.16
2023-04-22T04:17:04.278Z,10.20
2023-04-22T04:18:30.012Z,10.21
2023-04-22T04:19:52.087Z,10.23
2023-04-22T04:21:18.072Z,10.25
2023-04-22T04:22:44.812Z,10.25
2023-04-22T04:24:07.470Z,10.21
2023-04-22T04:25:38.586Z,10.24
2023-04-22T04:27:05.351Z,10.24
2023-04-22T04:28:36.287Z,10.31
2023-04-22T04:29:58.806Z,10.26
2023-04-22T04:31:39.520Z,10.28
2023-04-22T04:33:07.157Z,10.36
2023-04-22T04:34:31.915Z,10.30
2023-04-22T04:35:54.298Z,10.37
2023-04-22T04:37:23.022Z,10.39
2023-04-22T04:38:55.712Z,10.37
2023-04-22T04:40:19.217Z,10.40
2023-04-22T04:41:49.159Z,10.43
2023-04-22T04:43:13.116Z,10.44
2023-04-22T04:44:47.554Z,10.46
2023-04-22T04:46:09.123Z,10.47
2023-04-22T04:47:34.104Z,10.49
2023-04-22T04:49:05.910Z,10.47
2023-04-22T04:50:36.337Z,10.48
2023-04-22T04:52:04.389Z,10.49
2023-04-22T04:53:26.241Z,10.52
2023-04-22T04:54:55.600Z,10.51
2023-04-22T04:56:18.252Z,10.53
2023-04-22T04:57:43.240Z,10.53
2023-04-22T04:59:09.186Z,10.55
2023-04-22T05:00:32.693Z,10.55
2023-04-22T05:01:55.848Z,10.58
2023-04-22T05:03:17.222Z,10.55
2023-04-22T05:04:40.192Z,10.64
2023-04-22T05:06:01.472Z,10.68
2023-04-22T05:07:24.175Z,10.70
2023-04-22T05:08:47.708Z,10.76
2023-04-22T05:10:10.094Z,10.80
2023-04-22T05:11:35.273Z,10.84
2023-04-22T05:13:04.215Z,10.87
2023-04-22T05:14:29.671Z,10.89
2023-04-22T05:15:52.676Z,10.93
2023-04-22T05:17:17.413Z,11.03
2023-04-22T05:18:40.780Z,11.08
2023-04-22T05:20:06.167Z,11.07
2023-04-22T05:21:27.511Z,11.21
2023-04-22T05:22:49.707Z,11.26
2023-04-22T05:26:08.353Z,11.37
2023-04-22T05:27:35.912Z,11.43
2023-04-22T05:28:57.916Z,11.52
2023-04-22T05:30:24.917Z,11.60
2023-04-22T05:31:46.999Z,11.61
2023-04-22T05:33:10.681Z,11.77
2023-04-22T05:34:31.889Z,11.88
2023-04-22T05:35:56.795Z,11.98
2023-04-22T05:37:20.064Z,12.12
2023-04-22T05:38:43.248Z,12.25
2023-04-22T05:40:05.099Z,12.37
2023-04-22T05:41:28.392Z,12.45
2023-04-22T05:42:52.650Z,12.60
2023-04-22T05:44:15.299Z,12.80
2023-04-22T05:45:38.397Z,12.95
2023-04-22T05:47:02.971Z,13.09
2023-04-22T05:48:28.480Z,13.22
2023-04-22T05:49:57.606Z,13.34
2023-04-22T05:51:31.390Z,13.52
2023-04-22T05:52:57.546Z,13.64
2023-04-22T05:54:42.430Z,13.72
2023-04-22T05:56:03.747Z,13.95
2023-04-22T05:57:26.310Z,14.02
2023-04-22T05:58:52.096Z,14.14
2023-04-22T06:00:36.538Z,14.36
2023-04-22T06:02:20.555Z,14.46
2023-04-22T06:03:42.220Z,14.68
2023-04-22T06:05:05.296Z,14.80
2023-04-22T06:06:27.640Z,14.92
2023-04-22T06:07:50.329Z,14.99
2023-04-22T06:09:11.993Z,15.11
2023-04-22T06:10:38.213Z,15.21
2023-04-22T06:12:02.360Z,15.34
2023-04-22T06:13:37.065Z,15.46
2023-04-22T06:14:59.739Z,15.57
2023-04-22T06:16:23.667Z,15.62
2023-04-22T06:17:49.953Z,15.76
2023-04-22T06:19:12.059Z,15.85
2023-04-22T06:20:33.618Z,15.98
2023-04-22T06:21:57.963Z,16.08
2023-04-22T06:23:54.935Z,16.21
2023-04-22T06:25:17.733Z,16.30
2023-04-22T06:26:40.053Z,16.45
2023-04-22T06:28:02.507Z,16.50
2023-04-22T06:29:35.777Z,16.67
2023-04-22T06:30:56.798Z,16.81
2023-04-22T06:32:19.333Z,16.91
2023-04-22T06:33:41.828Z,17.04
2023-04-22T06:37:06.844Z,17.23
2023-04-22T06:39:26.082Z,17.35
2023-04-22T06:41:54.424Z,17.52
2023-04-22T06:43:32.874Z,17.78
2023-04-22T06:45:13.676Z,17.89
2023-04-22T06:47:03.233Z,17.99
2023-04-22T06:49:20.293Z,18.17
2023-04-22T06:51:58.155Z,18.28
2023-04-22T06:56:03.206Z,18.77
2023-04-22T07:00:03.069Z,19.23
2023-04-22T07:01:37.490Z,19.45
2023-04-22T07:03:00.996Z,19.63
2023-04-22T07:04:38.971Z,19.83
2023-04-22T07:06:03.133Z,20.03
2023-04-22T07:07:40.138Z,20.25
2023-04-22T07:13:58.616Z,21.16
2023-04-22T07:15:29.294Z,21.35
2023-04-22T07:17:15.988Z,21.57
2023-04-22T07:18:59.730Z,21.82
2023-04-22T07:20:24.144Z,22.06
2023-04-22T07:21:50.297Z,22.30
2023-04-22T07:29:36.798Z,23.41
2023-04-22T07:31:02.245Z,23.67
2023-04-22T07:32:29.100Z,23.89
2023-04-22T07:33:53.513Z,24.13
2023-04-22T07:35:14.680Z,24.34
2023-04-22T07:36:40.490Z,24.56
2023-04-22T07:38:02.553Z,24.75
2023-04-22T07:40:45.202Z,24.99
2023-04-22T07:42:09.583Z,25.32
2023-04-22T07:43:57.571Z,25.53
2023-04-22T07:45:26.530Z,25.71
2023-04-22T07:46:54.878Z,25.93
2023-04-22T07:48:43.306Z,26.12
2023-04-22T07:50:26.923Z,26.39
2023-04-22T07:52:10.623Z,26.59
2023-04-22T07:54:02.793Z,26.90
2023-04-22T07:56:02.172Z,27.21
2023-04-22T08:00:54.065Z,28.29
2023-04-22T08:03:05.020Z,28.72
2023-04-22T08:05:06.638Z,29.38
2023-04-22T08:10:06.264Z,30.94
2023-04-22T08:14:49.146Z,35.26
2023-04-22T08:17:13.834Z,37.99
2023-04-22T08:20:36.487Z,42.52
2023-04-22T08:22:39.629Z,44.10
2023-04-22T08:24:55.127Z,45.67
2023-04-22T08:26:39.844Z,47.38
2023-04-22T08:30:19.143Z,50.33
2023-04-22T08:44:22.556Z,57.42
2023-04-22T08:52:47.550Z,60.18
2023-04-22T08:54:55.835Z,60.53
2023-04-22T08:56:42.996Z,60.97
2023-04-22T08:58:59.143Z,61.30
2023-04-22T09:21:38.334Z,64.14
2023-04-22T09:23:05.596Z,64.37
2023-04-22T09:24:33.590Z,64.59
2023-04-22T09:26:01.402Z,64.73
2023-04-22T09:27:37.293Z,64.85
2023-04-22T09:30:00.784Z,65.05
2023-04-22T09:31:52.991Z,65.42
2023-04-22T09:35:49.569Z,65.37
2023-04-22T09:37:49.228Z,65.29
2023-04-22T09:39:38.223Z,65.07
2023-04-22T09:41:47.232Z,65.03
2023-04-22T09:43:15.699Z,64.97
2023-04-22T09:44:46.282Z,65.02
2023-04-22T09:46:17.165Z,64.98
2023-04-22T09:47:42.731Z,64.98
2023-04-22T09:49:10.248Z,65.04
2023-04-22T09:50:34.104Z,65.03
2023-04-22T09:52:03.610Z,65.01
2023-04-22T09:53:50.344Z,64.93
2023-04-22T09:55:14.976Z,64.85
2023-04-22T09:57:17.868Z,64.86
2023-04-22T09:59:41.567Z,64.79
2023-04-22T10:01:17.536Z,64.68
2023-04-22T10:02:43.174Z,64.67
2023-04-22T10:04:06.628Z,64.61
2023-04-22T10:05:31.813Z,64.56
2023-04-22T10:06:54.932Z,64.53
2023-04-22T10:08:22.331Z,64.45
2023-04-22T10:09:45.994Z,64.49
2023-04-22T10:11:10.526Z,64.45
2023-04-22T10:12:37.660Z,64.27
2023-04-22T10:14:05.454Z,64.02
2023-04-22T10:15:28.103Z,63.69
2023-04-22T10:16:51.883Z,63.41
2023-04-22T10:19:01.759Z,63.05
2023-04-22T10:20:30.762Z,62.68
2023-04-22T10:22:03.084Z,62.46
2023-04-22T10:23:29.149Z,62.33
2023-04-22T10:24:58.058Z,62.18
2023-04-22T10:26:50.933Z,61.91
2023-04-22T10:28:14.611Z,61.59
2023-04-22T10:29:40.366Z,61.32
2023-04-22T10:31:10.665Z,60.27
2023-04-22T10:32:35.795Z,59.57
2023-04-22T10:34:14.764Z,58.32
2023-04-22T10:35:38.882Z,55.39
2023-04-22T10:37:03.243Z,53.03
2023-04-22T10:38:29.419Z,50.99
2023-04-22T10:40:14.093Z,48.83
2023-04-22T10:41:38.768Z,46.87
2023-04-22T10:43:03.707Z,45.24
2023-04-22T10:44:46.145Z,43.68
2023-04-22T10:46:08.467Z,42.02
2023-04-22T10:47:32.029Z,40.71
2023-04-22T10:48:56.788Z,39.55
2023-04-22T10:50:22.699Z,38.43
2023-04-22T10:51:45.361Z,37.36
2023-04-22T10:53:38.211Z,36.23
2023-04-22T10:54:59.861Z,35.10
2023-04-22T10:56:25.195Z,34.23
2023-04-22T10:57:48.705Z,33.42
2023-04-22T10:59:16.572Z,32.61
2023-04-22T11:00:53.335Z,31.92
2023-04-22T11:02:17.047Z,31.18
2023-04-22T11:03:41.570Z,30.59
2023-04-22T11:05:25.852Z,29.91
2023-04-22T11:06:55.502Z,29.40
2023-04-22T11:08:25.533Z,28.93
2023-04-22T11:09:50.585Z,28.44
2023-04-22T11:11:33.731Z,28.11
2023-04-22T11:13:01.152Z,27.69
2023-04-22T11:14:25.269Z,27.36
2023-04-22T11:15:49.867Z,27.04
2023-04-22T11:17:12.060Z,26.75
2023-04-22T11:18:37.218Z,26.48
2023-04-22T11:19:59.518Z,26.22
2023-04-22T11:21:24.919Z,25.98
2023-04-22T11:22:48.984Z,25.77
2023-04-22T11:24:14.029Z,25.55
2023-04-22T11:25:35.618Z,25.35
2023-04-22T11:27:04.610Z,25.17
2023-04-22T11:28:49.076Z,24.93
2023-04-22T11:30:12.452Z,24.77
2023-04-22T11:31:36.509Z,24.64
2023-04-22T11:33:00.948Z,24.49
2023-04-22T11:34:23.656Z,24.37
2023-04-22T11:35:47.612Z,24.26
2023-04-22T11:37:08.985Z,24.14
2023-04-22T11:38:34.974Z,24.03
2023-04-22T11:40:17.384Z,23.93
2023-04-22T11:41:44.520Z,23.80
2023-04-22T11:43:09.322Z,23.71
2023-04-22T11:44:31.786Z,23.62
2023-04-22T11:45:56.779Z,23.51
2023-04-22T11:47:19.697Z,23.40
2023-04-22T11:48:44.342Z,23.34
2023-04-22T11:50:18.392Z,23.24
2023-04-22T11:52:13.829Z,23.10
2023-04-22T11:53:41.448Z,23.01
2023-04-22T11:55:11.390Z,22.93
2023-04-22T11:56:38.907Z,22.86
2023-04-22T11:58:03.335Z,22.78
2023-04-22T11:59:26.479Z,22.71
2023-04-22T12:00:53.126Z,22.65
2023-04-22T12:02:18.301Z,22.57
2023-04-22T12:03:40.763Z,22.48
2023-04-22T12:05:03.607Z,22.43
2023-04-22T12:06:26.290Z,22.41
2023-04-22T12:07:51.676Z,22.34
2023-04-22T12:09:14.104Z,22.30
2023-04-22T12:10:41.937Z,22.23
2023-04-22T12:12:05.440Z,22.18
2023-04-22T12:13:29.940Z,22.13
2023-04-22T12:14:52.573Z,22.09
2023-04-22T12:16:16.268Z,22.02
2023-04-22T12:17:38.706Z,21.97
2023-04-22T12:19:05.323Z,21.90
2023-04-22T12:20:34.304Z,21.87
2023-04-22T12:21:59.464Z,21.81
2023-04-22T12:23:22.875Z,21.78
2023-04-22T12:24:47.187Z,21.75
2023-04-22T12:26:09.466Z,21.70
2023-04-22T12:27:35.103Z,21.66
2023-04-22T12:28:58.536Z,21.61
2023-04-22T12:30:23.740Z,21.59
2023-04-22T12:31:47.741Z,21.53
2023-04-22T12:33:11.448Z,21.49
2023-04-22T12:34:36.407Z,21.46
2023-04-22T12:35:58.472Z,21.43
2023-04-22T12:37:20.033Z,21.40
2023-04-22T12:38:46.686Z,21.37
2023-04-22T12:40:10.544Z,21.32
2023-04-22T12:41:32.804Z,21.31
2023-04-22T12:42:55.283Z,21.28
2023-04-22T12:44:17.467Z,21.26
2023-04-22T12:45:42.879Z,21.25
2023-04-22T12:47:08.622Z,21.20
2023-04-22T12:48:31.225Z,21.19
2023-04-22T12:49:53.523Z,21.15
2023-04-22T12:51:15.590Z,21.12
2023-04-22T12:52:38.060Z,21.08
2023-04-22T12:54:05.710Z,21.07
2023-04-22T12:55:27.961Z,21.05
2023-04-22T12:56:49.341Z,21.00
2023-04-22T12:58:12.564Z,21.00
2023-04-22T12:59:37.027Z,20.97
2023-04-22T13:01:00.812Z,20.97
2023-04-22T13:02:23.272Z,20.95
2023-04-22T13:03:47.831Z,20.94
2023-04-22T13:05:11.349Z,20.91
2023-04-22T13:06:33.008Z,20.86
2023-04-22T13:08:06.592Z,20.82
2023-04-22T13:09:32.558Z,20.80
2023-04-22T13:10:55.277Z,20.79
2023-04-22T13:12:22.279Z,20.74
2023-04-22T13:13:44.662Z,20.75
2023-04-22T13:15:10.452Z,20.73
2023-04-22T13:16:52.279Z,20.69
2023-04-22T13:18:14.618Z,20.69
2023-04-22T13:20:06.941Z,20.62
2023-04-22T13:21:29.602Z,20.65
2023-04-22T13:22:55.231Z,20.64
2023-04-22T13:24:17.661Z,20.61
2023-04-22T13:28:20.656Z,20.53
2023-04-22T13:29:43.520Z,20.60
2023-04-22T13:31:06.325Z,20.60
2023-04-22T13:32:35.414Z,20.56
2023-04-22T13:34:00.318Z,20.59
2023-04-22T13:35:23.020Z,20.53
2023-04-22T13:36:45.576Z,20.53
2023-04-22T13:38:07.860Z,20.56
2023-04-22T13:39:31.115Z,20.52
2023-04-22T13:40:53.472Z,20.54
2023-04-22T13:42:16.650Z,20.54
2023-04-22T13:43:38.764Z,20.53
2023-04-22T13:45:00.934Z,20.49
2023-04-22T13:46:23.868Z,20.52
2023-04-22T13:47:47.742Z,20.50
2023-04-22T13:49:12.942Z,20.46
2023-04-22T13:50:42.876Z,20.48
2023-04-22T13:52:05.380Z,20.48
2023-04-22T13:53:30.025Z,20.46
2023-04-22T13:54:54.874Z,20.47
2023-04-22T13:56:17.283Z,20.46
2023-04-22T13:57:39.268Z,20.47
2023-04-22T13:59:02.376Z,20.45
2023-04-22T14:00:25.036Z,20.44
2023-04-22T14:01:47.444Z,20.43
2023-04-22T14:03:11.605Z,20.42
2023-04-22T14:04:35.109Z,20.41
2023-04-22T14:05:57.585Z,20.43
2023-04-22T14:07:50.792Z,20.34
2023-04-22T14:09:28.485Z,20.32
2023-04-22T14:10:51.943Z,20.31
2023-04-22T14:12:14.525Z,20.33
2023-04-22T14:13:36.877Z,20.33
2023-04-22T14:14:59.404Z,20.33
2023-04-22T14:16:21.664Z,20.34
2023-04-22T14:27:07.606Z,20.21
2023-04-22T14:28:29.897Z,20.13
2023-04-22T14:29:52.686Z,20.14
2023-04-22T14:31:15.418Z,20.23
2023-04-22T14:32:37.426Z,20.22
2023-04-22T14:34:00.066Z,20.25
2023-04-22T14:35:21.854Z,20.25
2023-04-22T14:36:49.170Z,20.25
2023-04-22T14:38:12.768Z,20.25
2023-04-22T14:39:35.230Z,20.27
2023-04-22T14:41:04.961Z,20.27
2023-04-22T14:42:30.622Z,20.18
2023-04-22T14:44:13.611Z,20.26
2023-04-22T14:45:40.055Z,20.24
2023-04-22T14:47:46.946Z,20.26
2023-04-22T14:49:20.612Z,20.23
2023-04-22T14:51:51.193Z,20.21
2023-04-22T14:53:48.269Z,20.10
2023-04-22T14:55:22.454Z,20.18
2023-04-22T14:56:51.835Z,20.16
2023-04-22T14:58:23.974Z,20.16
2023-04-22T14:59:57.866Z,20.13
2023-04-22T15:01:21.742Z,20.11
2023-04-22T15:02:46.720Z,20.16
2023-04-22T15:04:12.898Z,20.14
2023-04-22T15:05:35.153Z,20.15
2023-04-22T15:06:57.842Z,20.15
2023-04-22T15:08:20.752Z,20.15
2023-04-22T15:09:43.785Z,20.16
2023-04-22T15:11:06.295Z,20.16
2023-04-22T15:12:30.040Z,20.16
2023-04-22T15:13:52.436Z,20.14
2023-04-22T15:15:20.968Z,20.15
2023-04-22T15:16:43.853Z,20.15
2023-04-22T15:18:06.690Z,20.09
2023-04-22T15:19:27.935Z,20.11
2023-04-22T15:20:50.202Z,20.13
2023-04-22T15:22:13.653Z,20.11
2023-04-22T15:23:49.822Z,20.14
2023-04-22T15:25:12.771Z,20.11
2023-04-22T15:26:35.341Z,20.05
2023-04-22T15:28:02.357Z,20.12
2023-04-22T15:29:27.858Z,20.12
2023-04-22T15:30:50.359Z,20.10
2023-04-22T15:32:13.449Z,20.05
2023-04-22T15:33:38.944Z,20.12
2023-04-22T15:35:01.075Z,20.11
2023-04-22T15:36:23.470Z,20.09
2023-04-22T15:37:46.900Z,20.12
2023-04-22T15:39:10.827Z,20.10
2023-04-22T15:40:38.403Z,20.10
2023-04-22T15:42:01.163Z,20.10
2023-04-22T15:43:32.415Z,20.05
2023-04-22T15:44:54.492Z,20.08
2023-04-22T15:46:16.482Z,20.06
2023-04-22T15:47:40.376Z,20.06
2023-04-22T15:49:02.804Z,20.03
2023-04-22T15:50:25.205Z,20.05
2023-04-22T15:51:46.096Z,20.06
2023-04-22T15:53:08.301Z,20.05
2023-04-22T15:54:30.612Z,20.04
2023-04-22T15:55:52.884Z,20.06
2023-04-22T15:57:15.287Z,20.05
2023-04-22T15:58:39.595Z,20.04
2023-04-22T16:03:56.055Z,19.89
2023-04-22T16:09:13.509Z,19.81
2023-04-22T16:13:02.211Z,19.69
2023-04-22T16:18:01.524Z,19.65
2023-04-22T16:19:25.481Z,19.63
2023-04-22T16:20:53.538Z,19.67
2023-04-22T16:22:57.180Z,19.58
2023-04-22T16:24:27.727Z,19.57
2023-04-22T16:26:53.943Z,19.63
2023-04-22T16:31:33.013Z,19.49
2023-04-22T16:33:00.088Z,19.56
2023-04-22T16:35:13.424Z,19.54
2023-04-22T16:36:53.553Z,19.46
2023-04-22T16:39:16.250Z,19.49
2023-04-22T16:40:40.236Z,19.47
2023-04-22T16:42:41.584Z,19.49
2023-04-22T16:44:33.045Z,19.45
2023-04-22T16:46:12.248Z,19.47
2023-04-22T16:47:37.969Z,19.45
2023-04-22T16:49:03.214Z,19.41
2023-04-22T16:50:33.729Z,19.42
2023-04-22T16:51:57.728Z,19.44
2023-04-22T16:53:19.946Z,19.41
2023-04-22T16:54:45.870Z,19.43
2023-04-22T16:56:08.257Z,19.43
2023-04-22T16:57:30.598Z,19.42
2023-04-22T16:58:54.878Z,19.42
2023-04-22T17:00:16.671Z,19.32
2023-04-22T17:01:42.610Z,19.33
2023-04-22T17:03:05.889Z,19.30
2023-04-22T17:04:28.773Z,19.28
2023-04-22T17:05:57.204Z,19.28
2023-04-22T17:07:21.347Z,19.30
2023-04-22T17:09:14.537Z,19.22
2023-04-22T17:10:48.048Z,19.26
2023-04-22T17:13:32.531Z,19.22
2023-04-22T17:15:39.921Z,19.05
2023-04-22T17:37:17.165Z,18.57
2023-04-22T17:39:53.995Z,18.48
2023-04-22T17:50:10.046Z,18.26
2023-04-22T17:51:32.994Z,18.25
2023-04-22T17:52:55.677Z,18.13
2023-04-22T17:54:19.595Z,18.19
2023-04-22T17:55:42.831Z,18.17
2023-04-22T17:57:05.962Z,18.14
2023-04-22T17:58:28.722Z,18.14
2023-04-22T17:59:52.691Z,18.10
2023-04-22T18:01:15.238Z,18.13
2023-04-22T18:02:37.868Z,18.07
2023-04-22T18:04:10.869Z,18.08
2023-04-22T18:05:38.412Z,18.06
2023-04-22T18:07:27.281Z,18.01
2023-04-22T18:08:52.554Z,17.99
2023-04-22T18:10:21.047Z,17.97
2023-04-22T18:12:14.780Z,17.96
2023-04-22T18:13:46.478Z,17.88
2023-04-22T18:15:12.039Z,17.91
2023-04-22T18:16:37.925Z,17.88
2023-04-22T18:18:21.296Z,17.83
2023-04-22T18:19:49.905Z,17.78
2023-04-22T18:21:15.868Z,17.84
2023-04-22T18:22:38.727Z,17.83
2023-04-22T18:24:02.722Z,17.82
2023-04-22T18:25:29.544Z,17.80
2023-04-22T18:26:55.381Z,17.79
2023-04-22T18:28:37.266Z,17.77
2023-04-22T18:33:05.268Z,17.61
2023-04-22T18:34:29.353Z,17.62
2023-04-22T18:35:51.616Z,17.65
2023-04-22T18:37:17.137Z,17.64
2023-04-22T18:38:43.148Z,17.62
2023-04-22T18:40:07.285Z,17.59
2023-04-22T18:41:31.027Z,17.57
2023-04-22T18:42:52.377Z,17.59
2023-04-22T18:44:15.103Z,17.59
2023-04-22T18:45:37.485Z,17.58
2023-04-22T18:47:01.669Z,17.58
2023-04-22T18:48:24.177Z,17.55
2023-04-22T18:49:45.612Z,17.55
2023-04-22T18:51:10.735Z,17.54
2023-04-22T18:52:35.798Z,17.54
2023-04-22T18:54:00.885Z,17.50
2023-04-22T18:57:20.647Z,17.46
2023-04-22T18:58:42.770Z,17.48
2023-04-22T19:00:22.404Z,17.45
2023-04-22T19:02:18.471Z,17.41
2023-04-22T19:03:48.643Z,17.40
2023-04-22T19:05:21.920Z,17.38
2023-04-22T19:06:47.707Z,17.35
2023-04-22T19:08:12.569Z,17.29
2023-04-22T19:09:43.432Z,17.29
2023-04-22T19:11:14.402Z,17.27
2023-04-22T19:12:38.128Z,17.25
2023-04-22T19:14:06.283Z,17.27
2023-04-22T19:15:33.277Z,17.15
2023-04-22T19:16:58.005Z,17.19
2023-04-22T19:18:27.792Z,17.20
2023-04-22T19:19:52.733Z,17.16
2023-04-22T19:21:17.519Z,17.15
2023-04-22T19:22:39.514Z,17.13
2023-04-22T19:24:13.680Z,17.10
2023-04-22T19:25:40.935Z,17.07
2023-04-22T19:27:14.411Z,16.97
2023-04-22T19:28:40.047Z,17.05
2023-04-22T19:30:13.019Z,17.02
2023-04-22T19:31:40.656Z,16.94
2023-04-22T19:33:03.295Z,16.95
2023-04-22T19:34:41.875Z,16.92
2023-04-22T19:36:08.618Z,16.95
2023-04-22T19:37:51.848Z,16.91
2023-04-22T19:39:13.721Z,16.90
2023-04-22T19:40:53.087Z,16.88
2023-04-22T19:42:51.534Z,16.79
2023-04-22T19:44:22.665Z,16.75
2023-04-22T19:45:47.008Z,16.79
2023-04-22T19:47:13.401Z,16.74
2023-04-22T19:48:42.898Z,16.67
2023-04-22T19:50:17.938Z,16.68
2023-04-22T19:52:04.748Z,16.68
2023-04-22T19:53:37.882Z,16.57
2023-04-22T19:55:38.694Z,16.61
2023-04-22T19:57:15.248Z,16.60
2023-04-22T19:58:40.327Z,16.50
2023-04-22T20:00:07.065Z,16.51
2023-04-22T20:01:35.215Z,16.50
2023-04-22T20:03:05.093Z,16.46
2023-04-22T20:04:28.963Z,16.48
2023-04-22T20:05:55.378Z,16.47
2023-04-22T20:07:17.667Z,16.46
2023-04-22T20:08:42.612Z,16.36
2023-04-22T20:10:11.916Z,16.34
2023-04-22T20:11:50.946Z,16.30
2023-04-22T20:13:30.326Z,16.33
2023-04-22T20:15:22.600Z,16.28
2023-04-22T20:17:22.589Z,16.28
2023-04-22T20:19:08.221Z,16.21
2023-04-22T20:20:38.178Z,16.22
2023-04-22T20:22:07.432Z,16.19
2023-04-22T20:23:37.969Z,16.14
2023-04-22T20:25:09.033Z,16.17
2023-04-22T20:26:35.540Z,16.13
2023-04-22T20:28:04.211Z,16.10
2023-04-22T20:29:44.635Z,16.08
2023-04-22T20:33:18.044Z,16.00
2023-04-22T20:34:46.943Z,16.04
2023-04-22T20:37:55.855Z,16.07
2023-04-22T20:39:16.576Z,15.90
2023-04-22T20:41:12.429Z,15.94
2023-04-22T20:43:52.622Z,15.85
2023-04-22T20:45:35.418Z,15.84
2023-04-22T20:48:05.829Z,15.87
2023-04-22T20:49:43.303Z,15.77
2023-04-22T20:51:29.996Z,15.73
2023-04-22T20:55:26.517Z,15.68
2023-04-22T20:59:27.283Z,15.65
2023-04-22T21:01:25.506Z,15.64
2023-04-22T21:03:55.870Z,15.68
2023-04-22T21:06:04.772Z,15.66
2023-04-22T21:09:32.674Z,15.55
2023-04-22T21:11:10.761Z,15.54
2023-04-22T21:13:24.091Z,15.61
2023-04-22T21:15:19.167Z,15.51
2023-04-22T21:21:10.957Z,15.41
2023-04-22T21:26:06.561Z,15.38
2023-04-22T21:27:41.688Z,15.36
2023-04-22T21:29:37.864Z,15.24
2023-04-22T21:31:21.384Z,15.33
2023-04-22T21:32:55.227Z,15.24
2023-04-22T21:34:22.471Z,15.25
2023-04-22T21:36:15.781Z,15.27
2023-04-22T21:38:08.824Z,15.20
2023-04-22T21:40:14.749Z,15.18
2023-04-22T21:42:00.518Z,15.20
2023-04-22T21:43:40.925Z,15.19
2023-04-22T21:45:42.400Z,15.20
2023-04-22T21:47:21.611Z,15.17
2023-04-22T21:49:00.113Z,15.14
2023-04-22T21:50:46.400Z,15.13